Time;durP1;ratioP1;P1;durP2;ratioP2;P2;SDS_P1;SDS_P2;PMS_P1;PMS_P2;Temp;Humidity;BMP_temperature;BMP_pressure;BME280_temperature;BME280_humidity;BME280_pressure;Samples;Min_cycle;Max_cycle;Signal;HPM_P1;HPM_P2
2022/06/03 00:00:39;;;;;;;7.43;5.37;;;16.50;1.00;;;;;;5000453;28;20182;-89
2022/06/03 00:03:28;;;;;;;6.77;5.37;;;16.40;1.00;;;;;;5000485;28;20304;-88
2022/06/03 00:06:16;;;;;;;7.90;5.40;;;16.40;1.00;;;;;;4994230;28;20524;-89
2022/06/03 00:09:08;;;;;;;6.50;5.33;;;16.50;1.00;;;;;;4960493;28;20175;-86
2022/06/03 00:11:49;;;;;;;8.27;5.73;;;16.40;1.00;;;;;;4976867;28;20587;-85
2022/06/03 00:14:52;;;;;;;6.87;5.33;;;16.30;1.00;;;;;;4963029;28;20205;-90
2022/06/03 00:17:55;;;;;;;6.90;5.03;;;16.20;1.00;;;;;;4962147;28;20179;-88
2022/06/03 00:20:56;;;;;;;6.00;5.07;;;16.20;1.00;;;;;;4960691;28;20326;-85
2022/06/03 00:23:43;;;;;;;6.97;5.27;;;16.20;1.00;;;;;;4959590;28;20187;-90
2022/06/03 00:26:30;;;;;;;6.73;5.50;;;16.10;1.00;;;;;;4961023;28;20199;-90
2022/06/03 00:29:13;;;;;;;7.13;5.30;;;16.10;1.00;;;;;;4962800;28;20175;-88
2022/06/03 00:31:57;;;;;;;5.60;5.03;;;16.10;1.00;;;;;;4965551;28;20228;-88
2022/06/03 00:34:41;;;;;;;8.53;5.97;;;16.10;1.00;;;;;;4991635;28;20201;-86
2022/06/03 00:37:41;;;;;;;6.87;5.40;;;16.10;1.00;;;;;;4998181;28;20240;-84
2022/06/03 00:40:25;;;;;;;7.53;5.67;;;16.00;1.00;;;;;;4997499;28;20252;-87
2022/06/03 00:43:00;;;;;;;7.37;5.37;;;16.00;1.00;;;;;;4998091;28;20183;-86
2022/06/03 00:45:46;;;;;;;6.67;5.10;;;15.90;1.00;;;;;;5008577;28;20178;-86
2022/06/03 00:48:50;;;;;;;8.83;5.33;;;15.80;1.00;;;;;;4997687;28;20268;-86
2022/06/03 00:51:37;;;;;;;7.60;5.30;;;15.80;1.00;;;;;;4997377;28;20180;-86
2022/06/03 00:54:09;;;;;;;7.43;5.37;;;15.80;1.00;;;;;;4997556;28;20194;-85
2022/06/03 00:56:37;;;;;;;6.53;4.93;;;15.70;1.00;;;;;;4996881;28;20216;-86
2022/06/03 00:59:21;;;;;;;6.67;5.27;;;15.70;1.00;;;;;;4997312;28;20266;-84
2022/06/03 01:02:21;;;;;;;7.30;5.80;;;15.70;1.00;;;;;;4997340;28;20170;-86
2022/06/03 01:05:10;;;;;;;7.43;5.20;;;15.70;1.00;;;;;;4951911;28;20186;-85
2022/06/03 01:07:56;;;;;;;6.50;5.57;;;15.70;1.00;;;;;;4996754;28;20174;-86
2022/06/03 01:10:29;;;;;;;7.67;5.13;;;15.60;1.00;;;;;;4997000;28;20174;-85
2022/06/03 01:13:43;;;;;;;6.97;5.00;;;15.60;1.00;;;;;;4996917;28;20270;-86
2022/06/03 01:16:56;;;;;;;5.80;5.20;;;15.60;1.00;;;;;;4915706;28;20318;-91
2022/06/03 01:19:36;;;;;;;7.40;5.77;;;15.50;1.00;;;;;;4981393;28;20186;-90
2022/06/03 01:22:39;;;;;;;6.90;5.60;;;15.50;1.00;;;;;;4999631;28;20253;-85
2022/06/03 01:25:19;;;;;;;6.17;5.23;;;15.50;1.00;;;;;;4997032;28;20721;-86
2022/06/03 01:28:00;;;;;;;6.67;4.87;;;15.50;1.00;;;;;;4999772;28;20170;-90
2022/06/03 01:30:30;;;;;;;7.27;5.47;;;15.40;1.00;;;;;;4990735;28;20696;-90
2022/06/03 01:33:11;;;;;;;8.20;5.63;;;15.40;1.00;;;;;;4978483;28;20181;-88
2022/06/03 01:35:46;;;;;;;7.57;5.67;;;15.30;1.00;;;;;;4980678;28;20217;-89
2022/06/03 01:38:24;;;;;;;6.60;5.83;;;15.20;1.00;;;;;;4980929;28;20175;-91
2022/06/03 01:41:12;;;;;;;6.50;5.40;;;15.20;1.00;;;;;;4982854;28;20182;-89
2022/06/03 01:43:53;;;;;;;7.93;5.67;;;15.20;1.00;;;;;;4980823;28;20183;-86
2022/06/03 01:46:25;;;;;;;7.77;5.53;;;15.20;1.00;;;;;;4981251;28;20190;-87
2022/06/03 01:48:57;;;;;;;7.07;5.57;;;15.20;1.00;;;;;;4978951;28;20186;-89
2022/06/03 01:52:11;;;;;;;6.57;5.37;;;15.20;1.00;;;;;;4995389;28;20167;-84
2022/06/03 01:55:00;;;;;;;7.60;5.73;;;15.10;1.00;;;;;;4981643;28;20206;-91
2022/06/03 01:57:58;;;;;;;7.40;5.80;;;15.00;1.00;;;;;;4975876;28;20267;-86
2022/06/03 02:00:42;;;;;;;6.20;5.47;;;15.10;1.00;;;;;;4977379;28;20187;-89
2022/06/03 02:03:13;;;;;;;7.00;5.17;;;15.10;1.00;;;;;;4982623;28;20202;-89
2022/06/03 02:06:23;;;;;;;8.93;5.93;;;15.20;1.00;;;;;;5000434;28;20233;-87
2022/06/03 02:09:10;;;;;;;6.60;5.47;;;15.10;1.00;;;;;;4979223;28;20590;-91
2022/06/03 02:11:57;;;;;;;7.27;5.23;;;15.00;1.00;;;;;;4983372;28;20185;-90
2022/06/03 02:14:42;;;;;;;8.30;5.97;;;15.00;1.00;;;;;;4979267;28;20216;-85
2022/06/03 02:17:10;;;;;;;8.20;5.50;;;15.00;1.00;;;;;;4979216;28;20269;-89
2022/06/03 02:20:05;;;;;;;6.57;5.30;;;15.00;1.00;;;;;;4981402;28;20756;-87
2022/06/03 02:23:06;;;;;;;6.60;5.63;;;14.90;1.00;;;;;;4979873;28;20586;-89
2022/06/03 02:26:09;;;;;;;8.30;5.33;;;14.90;1.00;;;;;;4978380;28;20218;-89
2022/06/03 02:28:44;;;;;;;6.40;5.30;;;14.90;1.00;;;;;;4978487;28;20216;-86
2022/06/03 02:31:18;;;;;;;6.53;5.07;;;15.00;1.00;;;;;;4977325;28;20179;-84
2022/06/03 02:34:15;;;;;;;6.60;5.43;;;15.00;1.00;;;;;;4980262;28;20174;-89
2022/06/03 02:37:05;;;;;;;8.60;5.13;;;15.00;1.00;;;;;;4998097;28;20190;-89
2022/06/03 02:39:43;;;;;;;7.60;5.30;;;14.90;1.00;;;;;;4978889;28;20167;-87
2022/06/03 02:42:21;;;;;;;6.73;5.70;;;14.90;1.00;;;;;;4983178;28;20178;-86
2022/06/03 02:45:08;;;;;;;6.00;5.40;;;14.80;1.00;;;;;;4984716;28;20716;-90
2022/06/03 02:47:58;;;;;;;6.93;5.77;;;14.80;1.00;;;;;;4984115;28;20175;-88
2022/06/03 02:50:53;;;;;;;6.37;5.60;;;14.80;1.00;;;;;;5017445;28;20654;-88
2022/06/03 02:53:39;;;;;;;7.43;5.30;;;14.80;1.00;;;;;;4998824;28;20713;-87
2022/06/03 02:56:15;;;;;;;7.83;4.97;;;14.90;1.00;;;;;;4990527;28;20611;-89
2022/06/03 02:59:07;;;;;;;7.63;5.20;;;14.70;1.00;;;;;;4985605;28;20671;-89
2022/06/03 03:01:59;;;;;;;7.37;5.00;;;14.70;1.00;;;;;;4983720;28;20174;-87
2022/06/03 03:04:46;;;;;;;7.33;5.20;;;14.70;1.00;;;;;;4983407;28;20172;-86
2022/06/03 03:07:46;;;;;;;6.07;5.20;;;14.70;1.00;;;;;;5001417;28;20178;-87
2022/06/03 03:10:29;;;;;;;8.23;4.97;;;14.70;1.00;;;;;;4982213;28;20697;-85
2022/06/03 03:13:01;;;;;;;6.30;5.17;;;14.80;1.00;;;;;;4980224;28;20536;-85
2022/06/03 03:15:57;;;;;;;6.60;5.23;;;14.90;1.00;;;;;;4980396;28;20290;-86
2022/06/03 03:19:08;;;;;;;6.13;5.07;;;14.80;1.00;;;;;;4979370;28;20179;-84
2022/06/03 03:22:15;;;;;;;7.93;5.00;;;14.80;1.00;;;;;;5002723;28;20207;-84
2022/06/03 03:24:55;;;;;;;7.07;5.40;;;14.80;1.00;;;;;;4980103;28;20214;-83
2022/06/03 03:27:27;;;;;;;6.53;5.83;;;14.90;1.00;;;;;;4987196;28;20260;-83
2022/06/03 03:29:57;;;;;;;7.27;5.60;;;15.00;1.00;;;;;;4984864;28;20267;-85
2022/06/03 03:32:41;;;;;;;8.37;5.33;;;15.00;1.00;;;;;;4980594;28;20174;-84
2022/06/03 03:35:15;;;;;;;7.90;5.30;;;14.90;1.00;;;;;;4979209;28;20223;-85
2022/06/03 03:38:13;;;;;;;6.17;5.23;;;14.90;1.00;;;;;;4979210;28;20180;-83
2022/06/03 03:41:01;;;;;;;7.47;5.40;;;14.80;1.00;;;;;;4979418;28;20201;-84
2022/06/03 03:43:38;;;;;;;7.50;5.40;;;14.70;1.00;;;;;;4979304;28;20180;-83
2022/06/03 03:46:41;;;;;;;6.60;5.67;;;14.70;1.00;;;;;;4980945;28;20651;-86
2022/06/03 03:49:34;;;;;;;9.07;5.87;;;14.70;1.00;;;;;;4980262;28;20183;-84
2022/06/03 03:52:15;;;;;;;8.23;5.20;;;14.70;1.00;;;;;;4983826;28;20187;-87
2022/06/03 03:55:25;;;;;;;7.83;5.37;;;14.70;1.00;;;;;;5000663;28;20203;-83
2022/06/03 03:58:24;;;;;;;10.50;5.63;;;14.70;1.00;;;;;;4973438;28;20182;-83
2022/06/03 04:01:23;;;;;;;7.57;5.33;;;14.60;1.00;;;;;;4998812;28;20163;-84
2022/06/03 04:04:00;;;;;;;7.13;5.63;;;14.60;1.00;;;;;;4999881;28;20198;-84
2022/06/03 04:06:43;;;;;;;7.87;5.70;;;14.60;1.00;;;;;;4998208;28;20252;-84
2022/06/03 04:09:31;;;;;;;8.70;5.30;;;14.80;1.00;;;;;;5002890;28;20176;-84
2022/06/03 04:12:06;;;;;;;8.83;5.00;;;14.80;1.00;;;;;;5002383;28;20178;-83
2022/06/03 04:15:06;;;;;;;6.93;5.30;;;14.80;1.00;;;;;;4985112;28;20613;-85
2022/06/03 04:17:49;;;;;;;7.70;5.57;;;14.90;1.00;;;;;;4981624;28;20192;-84
2022/06/03 04:20:33;;;;;;;8.43;5.57;;;14.80;1.00;;;;;;4980176;28;20178;-83
2022/06/03 04:23:41;;;;;;;7.17;5.50;;;14.90;1.00;;;;;;4978780;28;20179;-83
2022/06/03 04:26:36;;;;;;;7.50;5.27;;;14.90;1.00;;;;;;4996122;28;20193;-82
2022/06/03 04:29:41;;;;;;;6.53;5.30;;;14.90;1.00;;;;;;4996122;28;20174;-86
2022/06/03 04:32:44;;;;;;;7.57;5.40;;;14.90;1.00;;;;;;4978319;28;20597;-83
2022/06/03 04:35:37;;;;;;;8.40;5.57;;;14.90;1.00;;;;;;4977801;28;20281;-82
2022/06/03 04:38:21;;;;;;;6.93;5.43;;;15.00;1.00;;;;;;4990160;28;20222;-82
2022/06/03 04:41:15;;;;;;;9.90;6.33;;;15.20;1.00;;;;;;4978077;28;20175;-83
2022/06/03 04:44:00;;;;;;;10.10;5.87;;;15.20;1.00;;;;;;4977730;28;20181;-84
2022/06/03 04:46:34;;;;;;;7.07;5.37;;;15.30;1.00;;;;;;4977706;28;20602;-85
2022/06/03 04:49:36;;;;;;;8.17;5.17;;;15.30;1.00;;;;;;4977782;28;20163;-85
2022/06/03 04:52:27;;;;;;;10.47;5.73;;;15.40;1.00;;;;;;4978139;28;20274;-84
2022/06/03 04:55:02;;;;;;;8.13;6.20;;;15.40;1.00;;;;;;4977593;28;20213;-85
2022/06/03 04:57:49;;;;;;;6.27;5.23;;;15.50;1.00;;;;;;4978348;28;20178;-84
2022/06/03 05:00:42;;;;;;;10.70;5.90;;;15.50;1.00;;;;;;4978436;28;20174;-85
2022/06/03 05:04:03;;;;;;;6.07;5.47;;;15.60;1.00;;;;;;5011158;28;20185;-88
2022/06/03 05:06:53;;;;;;;8.33;5.30;;;15.60;1.00;;;;;;4901928;29;20260;-88
2022/06/03 05:09:56;;;;;;;8.73;5.20;;;15.60;1.00;;;;;;4933697;29;20184;-89
2022/06/03 05:12:27;;;;;;;7.97;5.17;;;15.60;1.00;;;;;;5016174;28;20173;-88
2022/06/03 05:15:25;;;;;;;6.67;5.33;;;15.60;1.00;;;;;;4986075;28;20210;-90
2022/06/03 05:18:01;;;;;;;9.23;5.50;;;15.60;1.00;;;;;;4986334;28;20183;-89
2022/06/03 05:20:32;;;;;;;9.53;6.63;;;15.70;1.00;;;;;;4983650;28;20529;-88
2022/06/03 05:23:19;;;;;;;8.77;5.20;;;15.70;1.00;;;;;;4981046;28;20269;-90
2022/06/03 05:26:21;;;;;;;10.47;6.27;;;15.70;1.00;;;;;;4978545;28;20608;-89
2022/06/03 05:29:11;;;;;;;11.03;5.73;;;15.80;1.00;;;;;;4979254;28;20170;-90
2022/06/03 05:32:09;;;;;;;10.03;5.43;;;15.90;1.00;;;;;;4978535;28;20180;-89
2022/06/03 05:35:06;;;;;;;6.67;5.00;;;16.00;1.00;;;;;;4978831;28;20257;-89
2022/06/03 05:38:07;;;;;;;8.43;5.40;;;16.00;1.00;;;;;;4978783;28;20175;-88
2022/06/03 05:41:07;;;;;;;9.20;5.47;;;15.90;1.00;;;;;;4979048;28;20175;-88
2022/06/03 05:43:49;;;;;;;7.13;5.30;;;16.00;1.00;;;;;;4960490;28;20517;-88
2022/06/03 05:46:19;;;;;;;6.57;5.60;;;16.00;1.00;;;;;;4971215;28;20183;-90
2022/06/03 05:48:48;;;;;;;8.03;5.83;;;16.10;1.00;;;;;;4977824;28;20270;-86
2022/06/03 05:51:25;;;;;;;7.70;5.40;;;16.20;1.00;;;;;;4979118;28;20182;-86
2022/06/03 05:54:14;;;;;;;5.40;4.80;;;16.30;1.00;;;;;;4978536;28;20182;-88
2022/06/03 05:56:50;;;;;;;7.93;5.13;;;16.30;1.00;;;;;;4987648;28;20655;-88
2022/06/03 05:59:29;;;;;;;7.40;5.07;;;16.30;1.00;;;;;;4997517;28;20244;-88
2022/06/03 06:02:10;;;;;;;6.93;5.20;;;16.40;1.00;;;;;;5000022;28;20180;-83
2022/06/03 06:04:57;;;;;;;10.70;5.87;;;16.50;1.00;;;;;;4996746;28;20167;-84
2022/06/03 06:07:29;;;;;;;7.50;5.10;;;16.50;1.00;;;;;;4982824;28;20214;-87
2022/06/03 06:10:22;;;;;;;12.13;5.90;;;16.50;1.00;;;;;;4985367;28;20179;-89
2022/06/03 06:13:25;;;;;;;8.57;5.07;;;16.50;1.00;;;;;;4942858;28;20275;-90
2022/06/03 06:16:07;;;;;;;8.87;5.30;;;16.50;1.00;;;;;;4975745;28;20223;-92
2022/06/03 06:19:11;;;;;;;15.20;5.80;;;16.60;1.00;;;;;;4994571;28;20158;-88
2022/06/03 06:21:55;;;;;;;11.77;6.30;;;16.70;1.00;;;;;;4992033;28;20658;-86
2022/06/03 06:24:44;;;;;;;10.83;4.90;;;16.80;1.00;;;;;;4988082;28;20190;-90
2022/06/03 06:27:34;;;;;;;7.70;4.63;;;16.90;1.00;;;;;;4980779;28;20273;-89
2022/06/03 06:30:17;;;;;;;10.10;5.03;;;16.90;1.00;;;;;;4980350;28;20180;-89
2022/06/03 06:33:22;;;;;;;7.23;4.50;;;17.10;1.00;;;;;;4985157;28;20171;-87
2022/06/03 06:36:00;;;;;;;7.63;6.73;;;17.20;1.00;;;;;;4982153;28;20202;-88
2022/06/03 06:38:44;;;;;;;7.37;5.67;;;17.30;1.00;;;;;;4999481;28;20180;-89
2022/06/03 06:41:16;;;;;;;10.67;5.50;;;17.30;1.00;;;;;;4985546;28;20211;-88
2022/06/03 06:44:02;;;;;;;13.83;5.67;;;17.40;1.00;;;;;;4987096;28;20175;-89
2022/06/03 06:46:36;;;;;;;9.27;5.47;;;17.50;1.00;;;;;;4982560;28;20186;-90
2022/06/03 06:49:34;;;;;;;9.87;5.77;;;17.60;1.00;;;;;;4983770;28;20182;-89
2022/06/03 06:52:09;;;;;;;8.17;4.90;;;17.70;1.00;;;;;;4987289;28;20194;-89
2022/06/03 06:54:53;;;;;;;8.80;5.17;;;17.70;1.00;;;;;;5004692;28;20208;-88
2022/06/03 06:57:28;;;;;;;13.97;5.97;;;17.70;1.00;;;;;;4983118;28;20184;-90
2022/06/03 07:00:04;;;;;;;15.07;12.03;;;17.90;1.00;;;;;;4981983;28;20257;-89
2022/06/03 07:02:56;;;;;;;10.13;5.23;;;18.10;1.00;;;;;;4983531;28;20265;-89
2022/06/03 07:05:34;;;;;;;14.13;5.40;;;18.20;99.90;;;;;;4984032;28;20202;-88
2022/06/03 07:08:17;;;;;;;9.87;7.37;;;18.30;99.90;;;;;;5008377;28;20175;-88
2022/06/03 07:10:59;;;;;;;12.60;4.77;;;18.50;99.90;;;;;;4997419;28;20196;-88
2022/06/03 07:13:59;;;;;;;9.07;6.97;;;18.60;99.90;;;;;;4985380;28;20171;-90
2022/06/03 07:19:55;;;;;;;7.50;5.10;;;18.90;99.90;;;;;;4998428;28;20200;-89
2022/06/03 07:22:30;;;;;;;8.37;4.73;;;18.90;99.90;;;;;;4983985;28;20163;-88
2022/06/03 07:25:15;;;;;;;14.20;9.67;;;18.90;99.90;;;;;;4995987;28;20193;-88
2022/06/03 07:28:03;;;;;;;12.07;6.67;;;18.90;15.60;;;;;;4989629;28;20165;-87
2022/06/03 07:30:57;;;;;;;9.80;5.63;;;19.00;1.00;;;;;;4987072;28;20291;-88
2022/06/03 07:33:32;;;;;;;9.93;5.63;;;19.20;1.00;;;;;;4982159;28;20191;-89
2022/06/03 07:36:13;;;;;;;9.20;5.10;;;19.30;1.00;;;;;;4982766;28;20243;-87
2022/06/03 07:38:51;;;;;;;10.73;5.33;;;19.30;99.90;;;;;;4984895;28;20180;-87
2022/06/03 07:41:43;;;;;;;4.80;4.20;;;19.30;99.90;;;;;;4985531;28;20180;-88
2022/06/03 07:44:34;;;;;;;6.03;4.53;;;19.30;1.00;;;;;;4990890;28;20287;-88
2022/06/03 07:47:03;;;;;;;8.27;4.27;;;19.40;1.00;;;;;;4986716;28;20186;-88
2022/06/03 07:49:34;;;;;;;5.53;4.70;;;19.40;47.60;;;;;;4984021;28;20200;-87
2022/06/03 07:52:14;;;;;;;7.57;4.70;;;19.30;99.90;;;;;;4996055;28;20197;-89
2022/06/03 07:54:50;;;;;;;10.30;4.50;;;19.40;99.90;;;;;;4966771;28;20220;-88
2022/06/03 07:57:22;;;;;;;8.23;4.50;;;19.40;99.90;;;;;;4981687;28;20183;-89
2022/06/03 07:59:50;;;;;;;11.00;4.60;;;19.40;99.90;;;;;;4990637;28;20182;-85
2022/06/03 08:02:19;;;;;;;8.90;4.47;;;19.50;99.90;;;;;;4998226;28;20192;-87
2022/06/03 08:04:59;;;;;;;7.27;4.60;;;19.50;99.90;;;;;;4984639;28;20311;-89
2022/06/03 08:13:05;;;;;;;9.93;4.20;;;20.00;17.20;;;;;;5019649;28;20191;-88
2022/06/03 08:15:51;;;;;;;7.73;4.13;;;20.00;1.00;;;;;;5002546;28;20206;-85
2022/06/03 08:18:22;;;;;;;7.73;4.03;;;19.90;1.00;;;;;;4992728;28;20210;-85
2022/06/03 08:20:59;;;;;;;9.87;3.67;;;20.00;81.50;;;;;;4992349;28;20311;-87
2022/06/03 08:23:31;;;;;;;8.83;4.00;;;20.00;15.80;;;;;;4989592;28;20173;-87
2022/06/03 08:30:07;;;;;;;6.37;3.80;;;20.10;1.00;;;;;;5096991;28;20728;-87
2022/06/03 08:33:01;;;;;;;7.47;4.07;;;20.20;1.00;;;;;;5093319;28;20183;-87
2022/06/03 08:35:33;;;;;;;7.43;3.90;;;20.50;1.00;;;;;;5076940;28;20654;-89
2022/06/03 08:38:18;;;;;;;8.20;3.57;;;20.70;1.00;;;;;;5101141;28;20168;-86
2022/06/03 08:40:50;;;;;;;7.87;4.67;;;20.70;1.00;;;;;;5104122;28;20172;-87
2022/06/03 08:43:51;;;;;;;8.00;3.97;;;20.70;1.00;;;;;;5091725;28;20180;-88
2022/06/03 08:46:26;;;;;;;10.97;4.10;;;20.90;1.00;;;;;;5092934;28;20251;-89
2022/06/03 08:49:03;;;;;;;6.60;3.67;;;21.00;1.00;;;;;;5093172;28;20160;-89
2022/06/03 08:51:40;;;;;;;7.07;3.97;;;21.10;99.90;;;;;;5092594;28;20179;-90
2022/06/03 08:54:19;;;;;;;6.70;3.23;;;21.20;99.90;;;;;;5095459;28;20177;-88
2022/06/03 08:56:49;;;;;;;5.23;3.37;;;21.30;99.90;;;;;;5097072;28;20202;-90
2022/06/03 08:59:41;;;;;;;6.63;2.90;;;21.40;1.00;;;;;;5086400;28;20189;-87
2022/06/03 09:02:19;;;;;;;6.27;3.20;;;21.60;99.90;;;;;;5113095;28;20695;-90
2022/06/03 09:05:17;;;;;;;9.80;3.23;;;21.50;1.00;;;;;;5075981;28;20218;-87
2022/06/03 09:07:50;;;;;;;4.67;2.80;;;21.50;99.90;;;;;;5077527;28;20177;-87
2022/06/03 09:10:27;;;;;;;5.03;2.50;;;21.60;99.90;;;;;;5078703;28;20174;-89
2022/06/03 09:13:28;;;;;;;8.20;2.77;;;21.70;99.90;;;;;;5078766;28;20179;-89
2022/06/03 09:15:54;;;;;;;5.17;2.83;;;21.80;95.20;;;;;;5079456;28;20187;-89
2022/06/03 09:18:39;;;;;;;6.80;2.73;;;21.90;1.00;;;;;;5062763;28;20170;-87
2022/06/03 09:21:20;;;;;;;5.70;2.43;;;22.00;1.00;;;;;;5092450;28;20188;-86
2022/06/03 09:23:54;;;;;;;6.23;2.67;;;22.00;1.00;;;;;;5092618;28;20182;-86
2022/06/03 09:26:27;;;;;;;6.47;2.30;;;22.00;99.90;;;;;;5077016;28;20172;-85
2022/06/03 09:28:57;;;;;;;6.47;2.40;;;22.00;99.90;;;;;;5082840;28;20168;-89
2022/06/03 09:31:24;;;;;;;4.83;2.63;;;22.10;99.90;;;;;;5071408;28;20209;-89
2022/06/03 09:33:50;;;;;;;3.90;1.87;;;22.10;99.90;;;;;;5072521;28;20177;-91
2022/06/03 09:36:19;;;;;;;6.93;2.53;;;22.10;1.00;;;;;;5069350;28;20246;-87
2022/06/03 09:38:54;;;;;;;3.57;2.33;;;22.20;99.90;;;;;;5079516;28;20173;-86
2022/06/03 09:41:24;;;;;;;4.03;2.13;;;22.10;1.00;;;;;;5077548;28;20165;-88
2022/06/03 09:43:53;;;;;;;4.03;2.10;;;22.10;99.90;;;;;;5068465;28;20171;-88
2022/06/03 09:46:31;;;;;;;4.27;2.27;;;22.10;99.90;;;;;;5072577;28;20173;-90
2022/06/03 09:49:10;;;;;;;7.07;2.33;;;22.10;99.90;;;;;;5061554;28;20206;-90
2022/06/03 09:51:56;;;;;;;3.93;2.50;;;22.00;99.90;;;;;;5060228;28;20167;-90
2022/06/03 09:54:51;;;;;;;6.43;3.23;;;22.10;54.60;;;;;;5061436;28;20237;-89
2022/06/03 09:57:40;;;;;;;5.17;2.17;;;22.50;1.00;;;;;;5060332;28;20200;-90
2022/06/03 10:00:14;;;;;;;6.63;2.03;;;22.80;99.90;;;;;;5060555;28;20168;-88
2022/06/03 10:02:42;;;;;;;6.33;2.10;;;22.80;1.00;;;;;;5062138;28;20527;-89
2022/06/03 10:05:10;;;;;;;3.90;1.87;;;22.80;1.00;;;;;;5064603;28;20276;-90
2022/06/03 10:07:39;;;;;;;4.33;1.90;;;22.80;1.00;;;;;;5048204;28;20203;-88
2022/06/03 10:12:53;;;;;;;5.83;2.20;;;22.60;1.00;;;;;;5073926;28;20566;-88
2022/06/03 10:15:42;;;;;;;3.83;2.00;;;22.40;99.90;;;;;;5074629;28;20175;-90
2022/06/03 10:18:23;;;;;;;3.60;2.10;;;22.40;99.90;;;;;;5072831;28;20249;-89
2022/06/03 10:20:55;;;;;;;3.67;1.87;;;22.50;99.90;;;;;;5072701;28;20164;-89
2022/06/03 10:23:30;;;;;;;2.93;1.70;;;22.70;1.00;;;;;;5073645;28;20183;-89
2022/06/03 10:26:01;;;;;;;3.93;2.10;;;22.80;1.00;;;;;;5052828;28;20216;-89
2022/06/03 10:28:39;;;;;;;4.67;2.03;;;23.00;99.90;;;;;;5071715;28;20194;-88
2022/06/03 10:31:15;;;;;;;3.53;1.80;;;23.10;1.00;;;;;;5073664;28;20179;-89
2022/06/03 10:34:04;;;;;;;3.83;1.90;;;23.20;1.00;;;;;;5064664;28;20161;-90
2022/06/03 10:36:48;;;;;;;3.53;2.03;;;23.30;99.90;;;;;;5058315;28;20180;-90
2022/06/03 10:39:30;;;;;;;6.33;2.00;;;23.50;99.90;;;;;;5060330;28;20185;-90
2022/06/03 10:41:58;;;;;;;4.47;1.93;;;23.90;99.90;;;;;;5046334;28;20169;-90
2022/06/03 10:44:28;;;;;;;4.07;1.80;;;23.80;99.90;;;;;;5059236;28;20204;-89
2022/06/03 10:47:05;;;;;;;6.53;2.00;;;23.70;99.90;;;;;;5075747;28;20190;-88
2022/06/03 10:49:36;;;;;;;2.60;1.73;;;23.90;1.00;;;;;;5070833;28;20187;-89
2022/06/03 11:03:28;;;;;;;5.60;2.00;;;23.90;1.00;;;;;;5057560;28;20222;-90
2022/06/03 11:05:54;;;;;;;2.77;1.53;;;23.80;1.00;;;;;;5056194;28;20321;-90
2022/06/03 11:08:24;;;;;;;6.23;1.73;;;23.90;1.00;;;;;;5059866;28;20199;-89
2022/06/03 11:10:55;;;;;;;3.73;2.00;;;24.10;1.00;;;;;;5058387;28;20540;-89
2022/06/03 11:13:33;;;;;;;4.47;2.00;;;24.20;1.00;;;;;;5043489;28;20226;-87
2022/06/03 11:16:20;;;;;;;3.43;1.83;;;24.10;99.90;;;;;;5064818;28;20164;-87
2022/06/03 11:18:46;;;;;;;2.63;1.57;;;24.20;99.90;;;;;;5054654;28;20176;-87
2022/06/03 11:21:29;;;;;;;7.83;1.80;;;24.10;99.90;;;;;;5055501;28;20188;-87
2022/06/03 11:23:58;;;;;;;2.70;1.70;;;23.90;99.90;;;;;;5056223;28;20207;-87
2022/06/03 11:26:45;;;;;;;6.03;1.83;;;23.80;99.90;;;;;;5068712;28;20214;-88
2022/06/03 11:29:25;;;;;;;4.63;1.80;;;24.00;99.90;;;;;;5068023;28;20281;-87
2022/06/03 11:31:54;;;;;;;2.67;1.60;;;24.10;99.90;;;;;;5060977;28;20171;-88
2022/06/03 11:34:34;;;;;;;2.63;1.53;;;24.20;99.90;;;;;;5061225;28;20193;-90
2022/06/03 11:37:10;;;;;;;6.30;1.73;;;24.20;99.90;;;;;;5061261;28;20283;-89
2022/06/03 11:39:43;;;;;;;3.10;1.57;;;24.20;99.90;;;;;;5065593;28;20176;-89
2022/06/03 11:42:16;;;;;;;4.40;1.67;;;24.20;99.90;;;;;;5073338;28;20161;-87
2022/06/03 11:44:51;;;;;;;4.23;1.80;;;24.20;99.90;;;;;;5067796;28;20232;-89
2022/06/03 11:47:22;;;;;;;3.10;1.50;;;24.20;99.90;;;;;;5069510;28;20195;-89
2022/06/03 11:49:49;;;;;;;3.47;1.60;;;24.40;1.00;;;;;;5069037;28;20172;-89
2022/06/03 11:52:16;;;;;;;6.50;3.07;;;24.70;1.00;;;;;;5069604;28;20207;-87
2022/06/03 11:54:41;;;;;;;4.27;2.17;;;25.00;1.00;;;;;;5076878;28;20168;-87
2022/06/03 11:57:09;;;;;;;7.13;2.23;;;25.10;1.00;;;;;;5078385;28;20168;-86
2022/06/03 12:00:00;;;;;;;2.53;1.40;;;24.90;1.00;;;;;;5077352;28;20187;-87
2022/06/03 12:03:00;;;;;;;6.63;2.40;;;25.00;1.00;;;;;;5074392;28;20189;-87
2022/06/03 12:05:34;;;;;;;4.07;2.10;;;24.90;1.00;;;;;;5075539;28;20267;-87
2022/06/03 12:08:24;;;;;;;4.17;1.83;;;24.80;1.00;;;;;;5055181;28;20169;-86
2022/06/03 12:11:09;;;;;;;2.80;1.97;;;24.80;1.00;;;;;;5055123;28;20173;-90
2022/06/03 12:13:35;;;;;;;3.63;1.70;;;24.90;1.00;;;;;;5056201;28;20183;-90
2022/06/03 12:16:17;;;;;;;2.73;1.50;;;25.30;1.00;;;;;;5056244;28;20177;-89
2022/06/03 12:19:05;;;;;;;3.17;1.70;;;25.20;1.00;;;;;;5054720;28;20215;-89
2022/06/03 12:21:38;;;;;;;3.33;1.63;;;24.90;1.00;;;;;;5054204;28;20201;-91
2022/06/03 12:24:31;;;;;;;4.17;1.93;;;24.60;1.00;;;;;;5068707;28;20191;-89
2022/06/03 12:27:01;;;;;;;7.77;2.43;;;24.40;1.00;;;;;;5055432;28;20200;-89
2022/06/03 12:29:38;;;;;;;5.20;1.90;;;24.70;1.00;;;;;;5054720;28;20169;-89
2022/06/03 12:32:20;;;;;;;2.77;1.40;;;25.00;1.00;;;;;;5055556;28;20184;-90
2022/06/03 12:34:47;;;;;;;3.87;2.00;;;25.10;1.00;;;;;;5060090;28;20195;-90
2022/06/03 12:37:29;;;;;;;4.60;1.93;;;25.20;1.00;;;;;;5057236;28;20184;-88
2022/06/03 12:40:00;;;;;;;4.43;1.50;;;25.20;1.00;;;;;;5060954;28;20198;-88
2022/06/03 12:42:28;;;;;;;3.23;1.50;;;25.40;1.00;;;;;;5060343;28;20177;-88
2022/06/03 12:45:20;;;;;;;2.43;1.30;;;25.20;99.90;;;;;;5061655;28;20293;-89
2022/06/03 12:47:49;;;;;;;4.27;1.40;;;25.10;99.90;;;;;;5070703;28;20169;-89
2022/06/03 12:50:31;;;;;;;2.40;1.57;;;25.20;99.90;;;;;;5066762;28;20172;-89
2022/06/03 12:53:30;;;;;;;4.43;1.60;;;25.00;99.90;;;;;;5064625;28;20180;-88
2022/06/03 12:56:02;;;;;;;3.20;1.63;;;24.80;1.00;;;;;;5063537;28;20173;-89
2022/06/03 12:58:31;;;;;;;4.27;1.80;;;24.90;1.00;;;;;;5063166;28;20173;-89
2022/06/03 13:00:59;;;;;;;4.97;1.70;;;25.00;1.00;;;;;;5064583;28;20183;-89
2022/06/03 13:03:25;;;;;;;5.00;1.90;;;25.20;1.00;;;;;;5071759;28;20153;-90
2022/06/03 13:05:56;;;;;;;2.57;1.70;;;25.40;1.00;;;;;;5075281;28;20267;-87
2022/06/03 13:08:29;;;;;;;4.40;1.60;;;25.40;1.00;;;;;;5059791;28;20169;-88
2022/06/03 13:10:57;;;;;;;2.47;1.50;;;25.40;1.00;;;;;;5062308;28;20181;-88
2022/06/03 13:13:30;;;;;;;3.97;1.63;;;25.40;1.00;;;;;;5070961;28;20248;-89
2022/06/03 13:16:17;;;;;;;3.27;1.70;;;25.40;1.00;;;;;;5067500;28;20189;-88
2022/06/03 13:18:46;;;;;;;5.97;2.00;;;25.20;1.00;;;;;;5064038;28;20658;-89
2022/06/03 13:21:17;;;;;;;4.73;1.70;;;25.30;1.00;;;;;;5061714;28;20178;-90
2022/06/03 13:23:52;;;;;;;4.07;1.60;;;25.40;1.00;;;;;;5063552;28;20200;-89
2022/06/03 13:26:23;;;;;;;4.70;1.83;;;25.40;1.00;;;;;;5064356;28;20192;-88
2022/06/03 13:28:56;;;;;;;3.33;2.00;;;25.50;1.00;;;;;;5059149;28;20197;-91
2022/06/03 13:31:40;;;;;;;4.77;1.70;;;25.60;1.00;;;;;;5059168;28;20206;-88
2022/06/03 13:34:09;;;;;;;2.73;1.50;;;25.90;1.00;;;;;;5059108;28;20173;-90
2022/06/03 13:36:50;;;;;;;3.90;2.00;;;26.10;1.00;;;;;;5059444;28;20287;-89
2022/06/03 13:39:28;;;;;;;3.60;1.60;;;26.70;99.90;;;;;;5058318;28;20183;-90
2022/06/03 13:45:03;;;;;;;4.43;1.57;;;26.40;99.90;;;;;;5060646;28;20210;-89
2022/06/03 13:47:43;;;;;;;5.10;1.60;;;26.10;99.90;;;;;;5059537;28;20183;-90
2022/06/03 13:50:17;;;;;;;6.87;1.57;;;25.80;99.90;;;;;;5062414;28;20185;-88
2022/06/03 13:52:49;;;;;;;4.70;1.87;;;25.50;99.90;;;;;;5070406;28;20184;-90
2022/06/03 13:55:30;;;;;;;3.77;2.20;;;25.40;99.90;;;;;;5068120;28;20169;-89
2022/06/03 13:58:14;;;;;;;5.27;2.07;;;25.60;99.90;;;;;;5078972;28;20169;-88
2022/06/03 14:00:54;;;;;;;10.13;2.60;;;25.40;99.90;;;;;;5075170;28;20213;-89
2022/06/03 14:03:40;;;;;;;5.93;1.80;;;25.30;99.90;;;;;;5081027;28;20176;-89
2022/06/03 14:06:42;;;;;;;3.77;1.60;;;25.30;1.00;;;;;;5093440;28;20212;-89
2022/06/03 14:09:38;;;;;;;5.97;2.07;;;25.50;1.00;;;;;;5079279;28;20171;-90
2022/06/03 14:12:06;;;;;;;3.87;1.87;;;25.60;1.00;;;;;;5073660;28;20189;-90
2022/06/03 14:14:48;;;;;;;4.03;2.40;;;25.70;99.90;;;;;;5076350;28;20197;-88
2022/06/03 14:17:20;;;;;;;4.40;1.80;;;25.60;99.90;;;;;;5086550;28;20650;-88
2022/06/03 14:19:58;;;;;;;5.77;1.83;;;25.60;99.90;;;;;;5063639;28;20172;-90
2022/06/03 14:22:50;;;;;;;2.80;1.53;;;25.60;99.90;;;;;;5064496;28;20176;-90
2022/06/03 14:25:35;;;;;;;2.63;1.67;;;25.30;99.90;;;;;;5075374;28;20212;-88
2022/06/03 14:28:26;;;;;;;2.47;1.60;;;25.10;99.90;;;;;;5085596;28;20207;-87
2022/06/03 14:31:21;;;;;;;2.10;1.50;;;25.20;99.90;;;;;;5081494;28;20157;-89
2022/06/03 14:33:50;;;;;;;4.20;1.73;;;25.10;99.90;;;;;;5069232;28;20203;-88
2022/06/03 14:36:19;;;;;;;3.20;1.70;;;25.30;1.00;;;;;;5087225;28;20219;-87
2022/06/03 14:38:51;;;;;;;5.23;1.53;;;25.20;1.00;;;;;;5100862;28;20179;-87
2022/06/03 14:41:30;;;;;;;4.83;2.10;;;25.30;1.00;;;;;;5100860;28;20187;-86